sensor_id;sensor_type;location;lat;lon;timestamp;pressure;altitude;pressure_sealevel;temperature;humidity
58473;BME280;44775;51.564;5.460;2023-02-03T00:00:55;102234.56;;;7.91;100.00
58473;BME280;44775;51.564;5.460;2023-02-03T00:03:21;102238.53;;;7.86;100.00
58473;BME280;44775;51.564;5.460;2023-02-03T00:05:46;102237.06;;;7.81;100.00
58473;BME280;44775;51.564;5.460;2023-02-03T00:08:13;102235.16;;;7.84;100.00
58473;BME280;44775;51.564;5.460;2023-02-03T00:10:39;102233.59;;;7.92;100.00
58473;BME280;44775;51.564;5.460;2023-02-03T00:13:06;102226.72;;;8.01;100.00
58473;BME280;44775;51.564;5.460;2023-02-03T00:15:32;102229.09;;;7.93;100.00
58473;BME280;44775;51.564;5.460;2023-02-03T00:17:57;102243.03;;;7.96;100.00
58473;BME280;44775;51.564;5.460;2023-02-03T00:20:22;102248.03;;;8.01;100.00
58473;BME280;44775;51.564;5.460;2023-02-03T00:22:48;102256.09;;;7.99;100.00
58473;BME280;44775;51.564;5.460;2023-02-03T00:25:14;102269.59;;;8.20;100.00
58473;BME280;44775;51.564;5.460;2023-02-03T00:27:39;102266.28;;;8.05;100.00
58473;BME280;44775;51.564;5.460;2023-02-03T00:30:05;102264.47;;;8.06;100.00
58473;BME280;44775;51.564;5.460;2023-02-03T00:32:30;102274.28;;;8.05;100.00
58473;BME280;44775;51.564;5.460;2023-02-03T00:34:56;102284.47;;;8.12;100.00
58473;BME280;44775;51.564;5.460;2023-02-03T00:37:21;102275.88;;;8.08;100.00
58473;BME280;44775;51.564;5.460;2023-02-03T00:39:48;102269.09;;;8.15;100.00
58473;BME280;44775;51.564;5.460;2023-02-03T00:42:13;102269.47;;;8.11;100.00
58473;BME280;44775;51.564;5.460;2023-02-03T00:44:38;102275.88;;;8.08;100.00
58473;BME280;44775;51.564;5.460;2023-02-03T00:47:04;102268.41;;;8.24;100.00
58473;BME280;44775;51.564;5.460;2023-02-03T00:49:29;102266.66;;;8.12;100.00
58473;BME280;44775;51.564;5.460;2023-02-03T00:51:56;102261.94;;;8.16;100.00
58473;BME280;44775;51.564;5.460;2023-02-03T00:54:21;102265.50;;;8.27;100.00
58473;BME280;44775;51.564;5.460;2023-02-03T00:56:47;102263.16;;;8.23;100.00
58473;BME280;44775;51.564;5.460;2023-02-03T00:59:12;102281.25;;;8.31;100.00
58473;BME280;44775;51.564;5.460;2023-02-03T01:01:37;102284.75;;;8.31;100.00
58473;BME280;44775;51.564;5.460;2023-02-03T01:04:03;102283.16;;;8.28;100.00
58473;BME280;44775;51.564;5.460;2023-02-03T01:06:29;102288.19;;;8.44;100.00
58473;BME280;44775;51.564;5.460;2023-02-03T01:08:54;102294.13;;;8.48;100.00
58473;BME280;44775;51.564;5.460;2023-02-03T01:11:24;102295.44;;;8.42;100.00
58473;BME280;44775;51.564;5.460;2023-02-03T01:13:53;102299.19;;;8.40;100.00
58473;BME280;44775;51.564;5.460;2023-02-03T01:16:20;102294.59;;;8.42;100.00
58473;BME280;44775;51.564;5.460;2023-02-03T01:18:47;102290.94;;;8.32;100.00
58473;BME280;44775;51.564;5.460;2023-02-03T01:21:17;102298.09;;;8.42;100.00
58473;BME280;44775;51.564;5.460;2023-02-03T01:23:43;102280.88;;;8.24;100.00
58473;BME280;44775;51.564;5.460;2023-02-03T01:26:12;102277.38;;;8.23;100.00
58473;BME280;44775;51.564;5.460;2023-02-03T01:28:38;102282.91;;;8.20;100.00
58473;BME280;44775;51.564;5.460;2023-02-03T01:31:14;102270.81;;;8.27;100.00
58473;BME280;44775;51.564;5.460;2023-02-03T01:33:41;102256.16;;;8.22;100.00
58473;BME280;44775;51.564;5.460;2023-02-03T01:36:09;102266.34;;;8.28;100.00
58473;BME280;44775;51.564;5.460;2023-02-03T01:38:36;102257.47;;;8.16;100.00
58473;BME280;44775;51.564;5.460;2023-02-03T01:41:03;102270.44;;;8.21;100.00
58473;BME280;44775;51.564;5.460;2023-02-03T01:43:37;102278.16;;;8.13;100.00
58473;BME280;44775;51.564;5.460;2023-02-03T01:48:43;102264.75;;;8.14;100.00
58473;BME280;44775;51.564;5.460;2023-02-03T01:51:09;102259.44;;;8.14;100.00
58473;BME280;44775;51.564;5.460;2023-02-03T01:53:35;102263.53;;;8.18;100.00
58473;BME280;44775;51.564;5.460;2023-02-03T01:56:02;102266.94;;;8.20;100.00
58473;BME280;44775;51.564;5.460;2023-02-03T01:58:30;102263.16;;;8.23;100.00
58473;BME280;44775;51.564;5.460;2023-02-03T02:00:59;102246.97;;;8.26;100.00
58473;BME280;44775;51.564;5.460;2023-02-03T02:03:55;102238.41;;;8.34;100.00
58473;BME280;44775;51.564;5.460;2023-02-03T02:06:22;102237.41;;;8.23;100.00
58473;BME280;44775;51.564;5.460;2023-02-03T02:08:49;102229.38;;;8.12;100.00
58473;BME280;44775;51.564;5.460;2023-02-03T02:11:16;102221.44;;;8.23;100.00
58473;BME280;44775;51.564;5.460;2023-02-03T02:13:43;102221.44;;;8.35;100.00
58473;BME280;44775;51.564;5.460;2023-02-03T02:22:19;102250.38;;;8.28;100.00
58473;BME280;44775;51.564;5.460;2023-02-03T02:46:12;102243.00;;;8.43;100.00
58473;BME280;44775;51.564;5.460;2023-02-03T02:48:58;102239.88;;;8.38;100.00
58473;BME280;44775;51.564;5.460;2023-02-03T02:51:28;102237.81;;;8.41;100.00
58473;BME280;44775;51.564;5.460;2023-02-03T02:53:58;102229.69;;;8.43;100.00
58473;BME280;44775;51.564;5.460;2023-02-03T02:56:26;102221.22;;;8.38;100.00
58473;BME280;44775;51.564;5.460;2023-02-03T02:58:53;102231.41;;;8.44;100.00
58473;BME280;44775;51.564;5.460;2023-02-03T03:01:20;102224.88;;;8.48;100.00
58473;BME280;44775;51.564;5.460;2023-02-03T03:03:46;102225.69;;;8.37;100.00
58473;BME280;44775;51.564;5.460;2023-02-03T03:06:34;102232.44;;;8.30;100.00
58473;BME280;44775;51.564;5.460;2023-02-03T03:09:09;102228.09;;;8.29;100.00
58473;BME280;44775;51.564;5.460;2023-02-03T03:11:57;102234.53;;;8.38;100.00
58473;BME280;44775;51.564;5.460;2023-02-03T03:14:27;102236.69;;;8.33;100.00
58473;BME280;44775;51.564;5.460;2023-02-03T03:17:04;102227.03;;;8.43;100.00
58473;BME280;44775;51.564;5.460;2023-02-03T03:19:38;102225.22;;;8.43;100.00
58473;BME280;44775;51.564;5.460;2023-02-03T03:22:10;102223.16;;;8.47;100.00
58473;BME280;44775;51.564;5.460;2023-02-03T03:25:08;102203.78;;;8.56;100.00
58473;BME280;44775;51.564;5.460;2023-02-03T03:27:37;102213.00;;;8.41;100.00
58473;BME280;44775;51.564;5.460;2023-02-03T03:30:04;102207.66;;;8.52;100.00
58473;BME280;44775;51.564;5.460;2023-02-03T03:32:33;102206.16;;;8.37;100.00
58473;BME280;44775;51.564;5.460;2023-02-03T03:35:00;102203.03;;;8.32;100.00
58473;BME280;44775;51.564;5.460;2023-02-03T03:37:41;102198.59;;;8.55;100.00
58473;BME280;44775;51.564;5.460;2023-02-03T03:40:09;102200.50;;;8.52;100.00
58473;BME280;44775;51.564;5.460;2023-02-03T03:42:39;102186.81;;;8.57;100.00
58473;BME280;44775;51.564;5.460;2023-02-03T03:45:11;102195.56;;;8.48;100.00
58473;BME280;44775;51.564;5.460;2023-02-03T03:47:43;102196.25;;;8.50;100.00
58473;BME280;44775;51.564;5.460;2023-02-03T03:50:15;102193.13;;;8.56;100.00
58473;BME280;44775;51.564;5.460;2023-02-03T03:52:42;102186.09;;;8.66;100.00
58473;BME280;44775;51.564;5.460;2023-02-03T03:55:11;102201.72;;;8.48;100.00
58473;BME280;44775;51.564;5.460;2023-02-03T03:57:43;102205.00;;;8.52;100.00
58473;BME280;44775;51.564;5.460;2023-02-03T04:00:12;102214.94;;;8.61;100.00
58473;BME280;44775;51.564;5.460;2023-02-03T04:02:41;102236.13;;;8.63;100.00
58473;BME280;44775;51.564;5.460;2023-02-03T04:05:11;102231.41;;;8.55;100.00
58473;BME280;44775;51.564;5.460;2023-02-03T04:07:43;102236.25;;;8.61;100.00
58473;BME280;44775;51.564;5.460;2023-02-03T04:12:49;102233.31;;;8.53;100.00
58473;BME280;44775;51.564;5.460;2023-02-03T04:15:14;102241.69;;;8.71;100.00
58473;BME280;44775;51.564;5.460;2023-02-03T04:17:40;102232.47;;;8.52;100.00
58473;BME280;44775;51.564;5.460;2023-02-03T04:20:05;102236.72;;;8.55;100.00
58473;BME280;44775;51.564;5.460;2023-02-03T04:22:31;102247.38;;;8.55;100.00
58473;BME280;44775;51.564;5.460;2023-02-03T04:24:56;102251.38;;;8.61;100.00
58473;BME280;44775;51.564;5.460;2023-02-03T04:27:24;102255.00;;;8.60;100.00
58473;BME280;44775;51.564;5.460;2023-02-03T04:29:49;102241.44;;;8.51;100.00
58473;BME280;44775;51.564;5.460;2023-02-03T04:32:15;102244.94;;;8.63;100.00
58473;BME280;44775;51.564;5.460;2023-02-03T04:34:40;102260.09;;;8.63;100.00
58473;BME280;44775;51.564;5.460;2023-02-03T04:37:06;102241.34;;;8.64;100.00
58473;BME280;44775;51.564;5.460;2023-02-03T04:39:31;102227.03;;;8.65;100.00
58473;BME280;44775;51.564;5.460;2023-02-03T04:41:57;102234.06;;;8.55;100.00
58473;BME280;44775;51.564;5.460;2023-02-03T04:44:22;102234.53;;;8.60;100.00
58473;BME280;44775;51.564;5.460;2023-02-03T04:46:48;102229.91;;;8.73;100.00
58473;BME280;44775;51.564;5.460;2023-02-03T04:49:13;102229.81;;;8.64;100.00
58473;BME280;44775;51.564;5.460;2023-02-03T04:51:38;102197.09;;;8.73;100.00
58473;BME280;44775;51.564;5.460;2023-02-03T04:54:04;102226.06;;;8.78;100.00
58473;BME280;44775;51.564;5.460;2023-02-03T04:56:29;102220.25;;;8.72;100.00
58473;BME280;44775;51.564;5.460;2023-02-03T04:58:55;102229.69;;;8.77;100.00
58473;BME280;44775;51.564;5.460;2023-02-03T05:01:20;102216.50;;;8.75;100.00
58473;BME280;44775;51.564;5.460;2023-02-03T05:03:46;102217.22;;;8.66;100.00
58473;BME280;44775;51.564;5.460;2023-02-03T05:06:11;102203.50;;;8.70;100.00
58473;BME280;44775;51.564;5.460;2023-02-03T05:08:36;102200.88;;;8.59;100.00
58473;BME280;44775;51.564;5.460;2023-02-03T05:11:02;102218.41;;;8.73;100.00
58473;BME280;44775;51.564;5.460;2023-02-03T05:13:27;102224.84;;;8.70;100.00
58473;BME280;44775;51.564;5.460;2023-02-03T05:15:53;102212.72;;;8.89;100.00
58473;BME280;44775;51.564;5.460;2023-02-03T05:18:18;102204.13;;;8.85;100.00
58473;BME280;44775;51.564;5.460;2023-02-03T05:20:44;102225.09;;;8.79;100.00
58473;BME280;44775;51.564;5.460;2023-02-03T05:23:09;102229.44;;;8.80;100.00
58473;BME280;44775;51.564;5.460;2023-02-03T05:25:34;102230.88;;;8.84;100.00
58473;BME280;44775;51.564;5.460;2023-02-03T05:28:00;102224.34;;;8.88;100.00
58473;BME280;44775;51.564;5.460;2023-02-03T05:30:25;102220.09;;;8.85;100.00
58473;BME280;44775;51.564;5.460;2023-02-03T05:32:51;102242.66;;;8.81;100.00
58473;BME280;44775;51.564;5.460;2023-02-03T05:35:16;102241.94;;;8.68;100.00
58473;BME280;44775;51.564;5.460;2023-02-03T05:37:45;102243.63;;;8.91;100.00
58473;BME280;44775;51.564;5.460;2023-02-03T05:40:11;102241.56;;;8.72;100.00
58473;BME280;44775;51.564;5.460;2023-02-03T05:42:56;102249.91;;;8.79;100.00
58473;BME280;44775;51.564;5.460;2023-02-03T05:45:21;102245.91;;;8.73;100.00
58473;BME280;44775;51.564;5.460;2023-02-03T05:47:46;102242.41;;;8.84;100.00
58473;BME280;44775;51.564;5.460;2023-02-03T05:50:12;102248.44;;;8.97;100.00
58473;BME280;44775;51.564;5.460;2023-02-03T05:52:37;102251.34;;;8.83;100.00
58473;BME280;44775;51.564;5.460;2023-02-03T05:55:03;102240.06;;;8.91;100.00
58473;BME280;44775;51.564;5.460;2023-02-03T05:57:28;102259.97;;;8.75;100.00
58473;BME280;44775;51.564;5.460;2023-02-03T05:59:54;102256.34;;;8.88;100.00
58473;BME280;44775;51.564;5.460;2023-02-03T06:02:19;102244.81;;;8.76;100.00
58473;BME280;44775;51.564;5.460;2023-02-03T06:04:45;102243.00;;;8.77;100.00
58473;BME280;44775;51.564;5.460;2023-02-03T06:07:10;102237.69;;;8.88;100.00
58473;BME280;44775;51.564;5.460;2023-02-03T06:09:35;102242.63;;;8.92;100.00
58473;BME280;44775;51.564;5.460;2023-02-03T06:12:01;102250.63;;;8.92;100.00
58473;BME280;44775;51.564;5.460;2023-02-03T06:14:26;102256.22;;;8.89;100.00
58473;BME280;44775;51.564;5.460;2023-02-03T06:16:52;102250.41;;;8.84;100.00
58473;BME280;44775;51.564;5.460;2023-02-03T06:19:18;102246.03;;;8.83;100.00
58473;BME280;44775;51.564;5.460;2023-02-03T06:21:44;102257.88;;;8.90;100.00
58473;BME280;44775;51.564;5.460;2023-02-03T06:24:09;102247.50;;;8.76;100.00
58473;BME280;44775;51.564;5.460;2023-02-03T06:26:35;102246.75;;;8.74;100.00
58473;BME280;44775;51.564;5.460;2023-02-03T06:29:01;102242.75;;;8.91;100.00
58473;BME280;44775;51.564;5.460;2023-02-03T06:31:26;102240.91;;;9.03;100.00
58473;BME280;44775;51.564;5.460;2023-02-03T06:33:51;102224.84;;;8.82;100.00
58473;BME280;44775;51.564;5.460;2023-02-03T06:36:17;102234.41;;;8.73;100.00
58473;BME280;44775;51.564;5.460;2023-02-03T06:38:42;102227.25;;;8.85;100.00
58473;BME280;44775;51.564;5.460;2023-02-03T06:41:08;102226.78;;;8.68;100.00
58473;BME280;44775;51.564;5.460;2023-02-03T06:43:33;102239.84;;;8.83;100.00
58473;BME280;44775;51.564;5.460;2023-02-03T06:46:00;102246.38;;;8.90;100.00
58473;BME280;44775;51.564;5.460;2023-02-03T06:48:25;102249.41;;;8.74;100.00
58473;BME280;44775;51.564;5.460;2023-02-03T06:50:50;102234.41;;;8.84;100.00
58473;BME280;44775;51.564;5.460;2023-02-03T06:53:16;102252.34;;;8.82;100.00
58473;BME280;44775;51.564;5.460;2023-02-03T06:55:42;102246.41;;;8.79;100.00
58473;BME280;44775;51.564;5.460;2023-02-03T06:58:07;102233.69;;;8.82;100.00
58473;BME280;44775;51.564;5.460;2023-02-03T07:00:33;102243.75;;;8.79;100.00
58473;BME280;44775;51.564;5.460;2023-02-03T07:02:58;102255.84;;;8.83;100.00
58473;BME280;44775;51.564;5.460;2023-02-03T07:05:25;102245.53;;;8.89;100.00
58473;BME280;44775;51.564;5.460;2023-02-03T07:07:52;102253.69;;;8.88;100.00
58473;BME280;44775;51.564;5.460;2023-02-03T07:10:18;102263.47;;;8.87;100.00
58473;BME280;44775;51.564;5.460;2023-02-03T07:12:43;102282.25;;;8.86;100.00
58473;BME280;44775;51.564;5.460;2023-02-03T07:15:10;102287.00;;;8.82;100.00
58473;BME280;44775;51.564;5.460;2023-02-03T07:17:36;102281.66;;;8.82;100.00
58473;BME280;44775;51.564;5.460;2023-02-03T07:20:01;102283.97;;;8.75;100.00
58473;BME280;44775;51.564;5.460;2023-02-03T07:22:27;102277.53;;;8.78;100.00
58473;BME280;44775;51.564;5.460;2023-02-03T07:24:52;102280.56;;;8.73;100.00
58473;BME280;44775;51.564;5.460;2023-02-03T07:27:18;102286.75;;;8.85;100.00
58473;BME280;44775;51.564;5.460;2023-02-03T07:29:44;102268.69;;;8.89;100.00
58473;BME280;44775;51.564;5.460;2023-02-03T07:32:10;102274.25;;;8.86;100.00
58473;BME280;44775;51.564;5.460;2023-02-03T07:34:35;102266.88;;;8.89;100.00
58473;BME280;44775;51.564;5.460;2023-02-03T07:37:00;102274.41;;;8.84;100.00
58473;BME280;44775;51.564;5.460;2023-02-03T07:39:26;102274.25;;;8.97;100.00
58473;BME280;44775;51.564;5.460;2023-02-03T07:41:52;102285.66;;;8.88;100.00
58473;BME280;44775;51.564;5.460;2023-02-03T07:44:17;102286.00;;;8.83;100.00
58473;BME280;44775;51.564;5.460;2023-02-03T07:46:43;102268.22;;;8.95;100.00
58473;BME280;44775;51.564;5.460;2023-02-03T07:49:14;102277.50;;;9.01;100.00
58473;BME280;44775;51.564;5.460;2023-02-03T07:51:40;102281.03;;;8.90;100.00
58473;BME280;44775;51.564;5.460;2023-02-03T07:54:05;102278.38;;;9.01;100.00
58473;BME280;44775;51.564;5.460;2023-02-03T07:56:31;102294.38;;;8.90;100.00
58473;BME280;44775;51.564;5.460;2023-02-03T07:58:57;102297.03;;;8.90;100.00
58473;BME280;44775;51.564;5.460;2023-02-03T08:01:23;102306.25;;;8.97;100.00
58473;BME280;44775;51.564;5.460;2023-02-03T08:03:48;102304.41;;;8.97;100.00
58473;BME280;44775;51.564;5.460;2023-02-03T08:06:14;102293.28;;;8.92;100.00
58473;BME280;44775;51.564;5.460;2023-02-03T08:08:39;102297.50;;;9.06;100.00
58473;BME280;44775;51.564;5.460;2023-02-03T08:11:06;102306.25;;;8.86;100.00
58473;BME280;44775;51.564;5.460;2023-02-03T08:13:32;102301.66;;;8.99;100.00
58473;BME280;44775;51.564;5.460;2023-02-03T08:15:57;102300.91;;;8.97;100.00
58473;BME280;44775;51.564;5.460;2023-02-03T08:18:23;102317.88;;;8.96;100.00
58473;BME280;44775;51.564;5.460;2023-02-03T08:20:48;102307.47;;;8.93;100.00
58473;BME280;44775;51.564;5.460;2023-02-03T08:23:14;102316.53;;;9.13;100.00
58473;BME280;44775;51.564;5.460;2023-02-03T08:25:39;102321.75;;;9.03;100.00
58473;BME280;44775;51.564;5.460;2023-02-03T08:28:05;102331.22;;;8.85;100.00
58473;BME280;44775;51.564;5.460;2023-02-03T08:30:30;102318.97;;;9.05;100.00
58473;BME280;44775;51.564;5.460;2023-02-03T08:32:56;102316.41;;;9.03;100.00
58473;BME280;44775;51.564;5.460;2023-02-03T08:35:22;102320.31;;;8.99;100.00
58473;BME280;44775;51.564;5.460;2023-02-03T08:37:48;102331.59;;;8.91;100.00
58473;BME280;44775;51.564;5.460;2023-02-03T08:40:14;102338.97;;;8.99;100.00
58473;BME280;44775;51.564;5.460;2023-02-03T08:42:39;102346.50;;;9.05;100.00
58473;BME280;44775;51.564;5.460;2023-02-03T08:45:05;102344.53;;;9.07;100.00
58473;BME280;44775;51.564;5.460;2023-02-03T08:47:31;102345.38;;;8.96;100.00
58473;BME280;44775;51.564;5.460;2023-02-03T08:49:56;102353.53;;;8.95;100.00
58473;BME280;44775;51.564;5.460;2023-02-03T08:52:22;102350.84;;;8.95;100.00
58473;BME280;44775;51.564;5.460;2023-02-03T08:54:48;102347.69;;;8.90;100.00
58473;BME280;44775;51.564;5.460;2023-02-03T08:57:13;102345.75;;;8.92;100.00
58473;BME280;44775;51.564;5.460;2023-02-03T08:59:41;102341.13;;;8.94;100.00
58473;BME280;44775;51.564;5.460;2023-02-03T09:02:10;102340.78;;;8.98;100.00
58473;BME280;44775;51.564;5.460;2023-02-03T09:04:38;102334.72;;;8.96;100.00
58473;BME280;44775;51.564;5.460;2023-02-03T09:07:03;102332.19;;;9.06;100.00
58473;BME280;44775;51.564;5.460;2023-02-03T09:09:30;102337.50;;;9.06;100.00
58473;BME280;44775;51.564;5.460;2023-02-03T09:11:55;102335.81;;;9.05;100.00
58473;BME280;44775;51.564;5.460;2023-02-03T09:14:28;102343.44;;;9.10;100.00
58473;BME280;44775;51.564;5.460;2023-02-03T09:16:53;102344.53;;;9.07;100.00
58473;BME280;44775;51.564;5.460;2023-02-03T09:19:19;102340.91;;;9.08;100.00
58473;BME280;44775;51.564;5.460;2023-02-03T09:21:44;102342.38;;;9.12;100.00
58473;BME280;44775;51.564;5.460;2023-02-03T09:24:13;102354.50;;;9.05;100.00
58473;BME280;44775;51.564;5.460;2023-02-03T09:26:39;102341.16;;;9.05;100.00
58473;BME280;44775;51.564;5.460;2023-02-03T09:29:04;102350.59;;;9.20;100.00
58473;BME280;44775;51.564;5.460;2023-02-03T09:31:31;102359.31;;;9.22;100.00
58473;BME280;44775;51.564;5.460;2023-02-03T09:33:58;102376.75;;;9.38;100.00
58473;BME280;44775;51.564;5.460;2023-02-03T09:36:24;102371.16;;;9.41;100.00
58473;BME280;44775;51.564;5.460;2023-02-03T09:38:49;102391.66;;;9.52;100.00
58473;BME280;44775;51.564;5.460;2023-02-03T09:44:03;102381.31;;;9.58;100.00
58473;BME280;44775;51.564;5.460;2023-02-03T09:46:40;102384.38;;;9.54;100.00
58473;BME280;44775;51.564;5.460;2023-02-03T09:49:17;102379.13;;;9.63;100.00
58473;BME280;44775;51.564;5.460;2023-02-03T09:51:58;102383.63;;;9.63;100.00
58473;BME280;44775;51.564;5.460;2023-02-03T09:54:41;102374.88;;;9.72;100.00
58473;BME280;44775;51.564;5.460;2023-02-03T09:57:26;102381.06;;;9.61;100.00
58473;BME280;44775;51.564;5.460;2023-02-03T09:59:56;102368.31;;;9.65;100.00
58473;BME280;44775;51.564;5.460;2023-02-03T10:12:44;102371.03;;;9.97;100.00
58473;BME280;44775;51.564;5.460;2023-02-03T10:17:56;102360.03;;;10.11;100.00
58473;BME280;44775;51.564;5.460;2023-02-03T10:20:40;102383.44;;;10.19;100.00
58473;BME280;44775;51.564;5.460;2023-02-03T10:23:29;102386.97;;;10.20;100.00
58473;BME280;44775;51.564;5.460;2023-02-03T10:25:58;102371.78;;;10.20;100.00
58473;BME280;44775;51.564;5.460;2023-02-03T10:28:29;102373.22;;;10.24;100.00
58473;BME280;44775;51.564;5.460;2023-02-03T10:31:01;102374.69;;;10.28;100.00
58473;BME280;44775;51.564;5.460;2023-02-03T10:33:33;102379.50;;;10.34;100.00
58473;BME280;44775;51.564;5.460;2023-02-03T10:40:58;102385.25;;;10.51;100.00
58473;BME280;44775;51.564;5.460;2023-02-03T10:43:25;102379.47;;;10.67;100.00
58473;BME280;44775;51.564;5.460;2023-02-03T10:46:10;102379.56;;;10.65;100.00
58473;BME280;44775;51.564;5.460;2023-02-03T10:48:36;102386.91;;;10.73;100.00
58473;BME280;44775;51.564;5.460;2023-02-03T10:51:01;102382.56;;;10.72;100.00
58473;BME280;44775;51.564;5.460;2023-02-03T10:53:35;102390.91;;;10.78;100.00
58473;BME280;44775;51.564;5.460;2023-02-03T10:58:28;102381.25;;;10.87;100.00
58473;BME280;44775;51.564;5.460;2023-02-03T11:01:08;102386.19;;;10.92;100.00
58473;BME280;44775;51.564;5.460;2023-02-03T11:03:34;102393.09;;;10.94;100.00
58473;BME280;44775;51.564;5.460;2023-02-03T11:06:11;102392.59;;;11.00;99.91
58473;BME280;44775;51.564;5.460;2023-02-03T11:08:40;102400.72;;;10.99;100.00
58473;BME280;44775;51.564;5.460;2023-02-03T11:14:09;102410.50;;;11.09;100.00
58473;BME280;44775;51.564;5.460;2023-02-03T11:16:36;102405.97;;;11.10;99.11
58473;BME280;44775;51.564;5.460;2023-02-03T11:19:19;102411.56;;;11.28;99.97
58473;BME280;44775;51.564;5.460;2023-02-03T11:21:53;102408.97;;;11.17;100.00
58473;BME280;44775;51.564;5.460;2023-02-03T11:24:21;102403.59;;;11.07;100.00
58473;BME280;44775;51.564;5.460;2023-02-03T11:26:52;102405.75;;;11.23;99.64
58473;BME280;44775;51.564;5.460;2023-02-03T11:29:25;102401.00;;;10.96;100.00
58473;BME280;44775;51.564;5.460;2023-02-03T11:31:53;102397.63;;;11.03;100.00
58473;BME280;44775;51.564;5.460;2023-02-03T11:34:44;102396.78;;;11.24;100.00
58473;BME280;44775;51.564;5.460;2023-02-03T11:39:55;102406.28;;;11.17;98.86
58473;BME280;44775;51.564;5.460;2023-02-03T11:42:23;102407.53;;;11.13;100.00
58473;BME280;44775;51.564;5.460;2023-02-03T11:44:49;102409.69;;;11.19;99.87
58473;BME280;44775;51.564;5.460;2023-02-03T11:47:16;102399.72;;;11.21;99.03
58473;BME280;44775;51.564;5.460;2023-02-03T11:55:18;102401.03;;;11.36;99.49
58473;BME280;44775;51.564;5.460;2023-02-03T12:01:10;102407.91;;;11.29;100.00
58473;BME280;44775;51.564;5.460;2023-02-03T12:06:45;102412.53;;;11.27;99.30
58473;BME280;44775;51.564;5.460;2023-02-03T12:17:20;102404.22;;;11.30;100.00
58473;BME280;44775;51.564;5.460;2023-02-03T12:22:41;102398.53;;;11.44;100.00
58473;BME280;44775;51.564;5.460;2023-02-03T12:28:29;102406.44;;;11.55;99.34
58473;BME280;44775;51.564;5.460;2023-02-03T12:33:53;102400.63;;;11.41;99.80
58473;BME280;44775;51.564;5.460;2023-02-03T12:36:25;102409.31;;;11.33;99.68
58473;BME280;44775;51.564;5.460;2023-02-03T12:38:58;102419.75;;;11.36;99.39
58473;BME280;44775;51.564;5.460;2023-02-03T12:41:34;102415.94;;;11.29;98.97
58473;BME280;44775;51.564;5.460;2023-02-03T12:44:19;102421.53;;;11.26;100.00
58473;BME280;44775;51.564;5.460;2023-02-03T12:46:51;102427.88;;;11.25;100.00
58473;BME280;44775;51.564;5.460;2023-02-03T12:49:39;102427.16;;;11.23;100.00
58473;BME280;44775;51.564;5.460;2023-02-03T12:52:16;102425.59;;;11.20;100.00
58473;BME280;44775;51.564;5.460;2023-02-03T12:55:05;102429.88;;;11.32;100.00
58473;BME280;44775;51.564;5.460;2023-02-03T13:06:06;102445.22;;;11.71;99.35
58473;BME280;44775;51.564;5.460;2023-02-03T13:08:43;102426.38;;;11.82;98.19
58473;BME280;44775;51.564;5.460;2023-02-03T13:11:28;102427.91;;;11.75;97.89
58473;BME280;44775;51.564;5.460;2023-02-03T13:14:06;102425.50;;;11.72;99.32
58473;BME280;44775;51.564;5.460;2023-02-03T13:16:39;102440.72;;;11.81;97.43
58473;BME280;44775;51.564;5.460;2023-02-03T13:19:17;102435.88;;;11.96;97.70
58473;BME280;44775;51.564;5.460;2023-02-03T13:21:47;102444.22;;;12.02;95.00
58473;BME280;44775;51.564;5.460;2023-02-03T13:24:12;102439.13;;;12.09;96.56
58473;BME280;44775;51.564;5.460;2023-02-03T13:27:09;102442.78;;;12.18;97.80
58473;BME280;44775;51.564;5.460;2023-02-03T13:30:12;102440.13;;;12.37;95.34
58473;BME280;44775;51.564;5.460;2023-02-03T13:43:30;102453.94;;;12.03;95.40
58473;BME280;44775;51.564;5.460;2023-02-03T13:45:58;102456.75;;;12.02;94.53
58473;BME280;44775;51.564;5.460;2023-02-03T13:48:29;102474.38;;;11.95;94.92
58473;BME280;44775;51.564;5.460;2023-02-03T13:54:11;102456.03;;;11.90;97.06
58473;BME280;44775;51.564;5.460;2023-02-03T13:56:38;102462.78;;;11.54;97.91
58473;BME280;44775;51.564;5.460;2023-02-03T13:59:29;102467.22;;;11.65;98.59
58473;BME280;44775;51.564;5.460;2023-02-03T14:07:35;102474.25;;;11.66;98.64
58473;BME280;44775;51.564;5.460;2023-02-03T14:12:53;102466.72;;;11.50;99.76
58473;BME280;44775;51.564;5.460;2023-02-03T14:17:53;102460.63;;;11.38;100.00
58473;BME280;44775;51.564;5.460;2023-02-03T14:23:13;102462.41;;;11.28;100.00
58473;BME280;44775;51.564;5.460;2023-02-03T14:25:51;102465.72;;;11.10;100.00
58473;BME280;44775;51.564;5.460;2023-02-03T14:28:42;102458.44;;;11.22;100.00
58473;BME280;44775;51.564;5.460;2023-02-03T14:31:12;102461.53;;;10.76;100.00
58473;BME280;44775;51.564;5.460;2023-02-03T14:36:34;102462.50;;;10.54;100.00
58473;BME280;44775;51.564;5.460;2023-02-03T14:42:22;102465.94;;;10.45;100.00
58473;BME280;44775;51.564;5.460;2023-02-03T14:50:31;102481.09;;;10.12;100.00
58473;BME280;44775;51.564;5.460;2023-02-03T14:53:23;102487.78;;;10.06;100.00
58473;BME280;44775;51.564;5.460;2023-02-03T14:58:56;102500.34;;;9.83;100.00
58473;BME280;44775;51.564;5.460;2023-02-03T15:06:43;102496.94;;;9.92;100.00
58473;BME280;44775;51.564;5.460;2023-02-03T15:11:56;102508.25;;;9.62;100.00
58473;BME280;44775;51.564;5.460;2023-02-03T15:14:26;102511.16;;;9.59;100.00
58473;BME280;44775;51.564;5.460;2023-02-03T15:17:10;102516.00;;;9.54;100.00
58473;BME280;44775;51.564;5.460;2023-02-03T15:19:41;102512.47;;;9.54;100.00
58473;BME280;44775;51.564;5.460;2023-02-03T15:22:27;102511.03;;;9.38;100.00
58473;BME280;44775;51.564;5.460;2023-02-03T15:25:16;102516.34;;;9.61;100.00
58473;BME280;44775;51.564;5.460;2023-02-03T15:27:42;102506.16;;;9.43;100.00